createdAt,value
2023-11-02T00:01:53.243Z,9.15
2023-11-02T00:04:21.921Z,9.16
2023-11-02T00:06:51.259Z,9.09
2023-11-02T00:09:35.433Z,8.95
2023-11-02T00:12:05.635Z,8.89
2023-11-02T00:14:39.417Z,8.85
2023-11-02T00:17:28.928Z,8.90
2023-11-02T00:19:57.384Z,8.92
2023-11-02T00:22:25.740Z,8.87
2023-11-02T00:24:55.539Z,8.81
2023-11-02T00:27:24.075Z,8.81
2023-11-02T00:29:52.608Z,8.76
2023-11-02T00:32:22.350Z,8.62
2023-11-02T00:34:50.893Z,8.55
2023-11-02T00:37:19.627Z,8.48
2023-11-02T00:39:48.210Z,8.47
2023-11-02T00:42:18.209Z,8.48
2023-11-02T00:44:48.558Z,8.49
2023-11-02T00:47:18.195Z,8.55
2023-11-02T00:49:48.932Z,8.50
2023-11-02T00:52:25.277Z,8.53
2023-11-02T00:54:57.602Z,8.43
2023-11-02T00:57:29.943Z,8.29
2023-11-02T00:59:59.497Z,8.29
2023-11-02T01:02:37.324Z,8.24
2023-11-02T01:05:07.785Z,8.11
2023-11-02T01:07:36.337Z,8.06
2023-11-02T01:10:07.188Z,8.12
2023-11-02T01:12:38.510Z,8.06
2023-11-02T01:15:09.739Z,7.98
2023-11-02T01:17:40.813Z,7.97
2023-11-02T01:20:11.664Z,8.00
2023-11-02T01:22:56.588Z,8.00
2023-11-02T01:25:27.363Z,7.96
2023-11-02T01:28:02.132Z,7.93
2023-11-02T01:31:14.856Z,7.84
2023-11-02T01:34:03.488Z,7.71
2023-11-02T01:36:34.824Z,7.60
2023-11-02T01:39:31.323Z,7.64
2023-11-02T01:42:07.405Z,7.61
2023-11-02T01:44:43.369Z,7.60
2023-11-02T01:47:21.450Z,7.57
2023-11-02T01:49:58.298Z,7.54
2023-11-02T01:52:42.002Z,7.57
2023-11-02T01:55:15.906Z,7.57
2023-11-02T01:57:54.096Z,7.57
2023-11-02T02:00:25.716Z,7.54
2023-11-02T02:02:59.387Z,7.48
2023-11-02T02:05:32.550Z,7.52
2023-11-02T02:08:06.268Z,7.48
2023-11-02T02:10:47.831Z,7.49
2023-11-02T02:13:29.630Z,7.33
2023-11-02T02:16:09.547Z,7.21
2023-11-02T02:18:45.832Z,7.15
2023-11-02T02:21:18.498Z,7.13
2023-11-02T02:23:51.071Z,7.04
2023-11-02T02:26:34.360Z,7.10
2023-11-02T02:29:20.170Z,7.12
2023-11-02T02:32:04.021Z,7.04
2023-11-02T02:34:57.147Z,7.04
2023-11-02T02:37:30.527Z,7.02
2023-11-02T02:40:04.318Z,7.00
2023-11-02T02:42:33.103Z,7.02
2023-11-02T02:45:03.587Z,6.96
2023-11-02T02:47:33.607Z,6.94
2023-11-02T02:50:04.357Z,6.91
2023-11-02T02:52:33.948Z,6.93
2023-11-02T02:55:04.307Z,6.95
2023-11-02T02:57:33.998Z,6.90
2023-11-02T03:00:03.661Z,6.92
2023-11-02T03:02:33.782Z,6.90
2023-11-02T03:05:03.959Z,6.93
2023-11-02T03:07:33.890Z,6.89
2023-11-02T03:10:04.736Z,6.82
2023-11-02T03:12:36.007Z,6.77
2023-11-02T03:15:08.119Z,6.85
2023-11-02T03:17:46.574Z,6.83
2023-11-02T03:20:17.679Z,6.87
2023-11-02T03:22:46.972Z,6.85
2023-11-02T03:25:21.032Z,6.86
2023-11-02T03:28:01.474Z,6.82
2023-11-02T03:30:38.870Z,6.83
2023-11-02T03:33:13.686Z,6.80
2023-11-02T03:35:45.783Z,6.77
2023-11-02T03:38:21.391Z,6.79
2023-11-02T03:41:01.434Z,6.77
2023-11-02T03:43:33.244Z,6.74
2023-11-02T03:46:23.506Z,6.76
2023-11-02T03:48:57.403Z,6.70
2023-11-02T03:51:38.631Z,6.64
2023-11-02T03:54:16.106Z,6.57
2023-11-02T03:56:58.139Z,6.50
2023-11-02T03:59:34.261Z,6.54
2023-11-02T04:02:06.333Z,6.48
2023-11-02T04:04:39.487Z,6.47
2023-11-02T04:07:17.736Z,6.47
2023-11-02T04:09:51.269Z,6.53
2023-11-02T04:12:33.649Z,6.53
2023-11-02T04:15:02.810Z,6.51
2023-11-02T04:17:32.536Z,6.51
2023-11-02T04:20:02.405Z,6.47
2023-11-02T04:22:32.243Z,6.49
2023-11-02T04:25:00.495Z,6.50
2023-11-02T04:27:28.857Z,6.53
2023-11-02T04:29:57.288Z,6.54
2023-11-02T04:32:25.835Z,6.50
2023-11-02T04:34:54.355Z,6.51
2023-11-02T04:37:22.828Z,6.55
2023-11-02T04:39:52.516Z,6.55
2023-11-02T04:42:22.553Z,6.55
2023-11-02T04:44:53.117Z,6.55
2023-11-02T04:47:21.741Z,6.61
2023-11-02T04:49:50.172Z,6.58
2023-11-02T04:52:18.508Z,6.54
2023-11-02T04:54:46.962Z,6.55
2023-11-02T04:57:17.135Z,6.54
2023-11-02T04:59:46.293Z,6.53
2023-11-02T05:02:15.388Z,6.55
2023-11-02T05:04:43.829Z,6.55
2023-11-02T05:07:12.514Z,6.55
2023-11-02T05:09:40.894Z,6.56
2023-11-02T05:12:09.422Z,6.55
2023-11-02T05:14:39.226Z,6.50
2023-11-02T05:17:07.935Z,6.50
2023-11-02T05:19:39.046Z,6.47
2023-11-02T05:22:08.743Z,6.49
2023-11-02T05:24:38.287Z,6.47
2023-11-02T05:27:07.671Z,6.49
2023-11-02T05:29:36.184Z,6.51
2023-11-02T05:32:06.890Z,6.55
2023-11-02T05:34:35.445Z,6.59
2023-11-02T05:37:05.653Z,6.61
2023-11-02T05:39:34.012Z,6.60
2023-11-02T05:42:02.376Z,6.61
2023-11-02T05:44:31.244Z,6.60
2023-11-02T05:47:00.146Z,6.62
2023-11-02T05:49:30.117Z,6.66
2023-11-02T05:51:58.479Z,6.69
2023-11-02T05:54:26.869Z,6.72
2023-11-02T05:56:55.269Z,6.74
2023-11-02T05:59:24.280Z,6.76
2023-11-02T06:01:52.530Z,6.78
2023-11-02T06:04:20.891Z,6.80
2023-11-02T06:06:51.270Z,6.82
2023-11-02T06:09:19.613Z,6.83
2023-11-02T06:11:48.050Z,6.80
2023-11-02T06:14:16.499Z,6.85
2023-11-02T06:16:45.356Z,6.86
2023-11-02T06:19:16.136Z,6.90
2023-11-02T06:21:44.631Z,6.94
2023-11-02T06:24:14.429Z,6.94
2023-11-02T06:26:43.240Z,6.96
2023-11-02T06:29:11.900Z,6.94
2023-11-02T06:31:40.284Z,6.99
2023-11-02T06:34:11.359Z,6.89
2023-11-02T06:36:40.262Z,6.92
2023-11-02T06:39:09.749Z,6.94
2023-11-02T06:41:40.064Z,6.99
2023-11-02T06:44:08.402Z,7.02
2023-11-02T06:46:36.914Z,7.07
2023-11-02T06:49:06.282Z,7.10
2023-11-02T06:51:34.668Z,7.13
2023-11-02T06:54:03.048Z,7.11
2023-11-02T06:56:31.586Z,7.12
2023-11-02T06:59:01.653Z,7.13
2023-11-02T07:01:30.664Z,7.10
2023-11-02T07:03:59.576Z,7.10
2023-11-02T07:06:27.999Z,7.16
2023-11-02T07:08:56.745Z,7.18
2023-11-02T07:11:25.231Z,7.21
2023-11-02T07:13:54.035Z,7.24
2023-11-02T07:16:24.242Z,7.27
2023-11-02T07:19:02.801Z,7.29
2023-11-02T07:21:31.604Z,7.32
2023-11-02T07:24:00.546Z,7.31
2023-11-02T07:26:30.575Z,7.31
2023-11-02T07:28:59.964Z,7.31
2023-11-02T07:31:30.504Z,7.36
2023-11-02T07:33:59.105Z,7.44
2023-11-02T07:36:28.623Z,7.52
2023-11-02T07:38:57.352Z,7.58
2023-11-02T07:41:26.044Z,7.62
2023-11-02T07:43:54.540Z,7.64
2023-11-02T07:46:23.225Z,7.69
2023-11-02T07:48:53.914Z,7.69
2023-11-02T07:51:25.254Z,7.72
2023-11-02T07:53:53.838Z,7.78
2023-11-02T07:56:23.268Z,7.84
2023-11-02T07:58:52.417Z,7.87
2023-11-02T08:01:21.281Z,7.91
2023-11-02T08:03:49.981Z,7.97
2023-11-02T08:06:20.290Z,8.04
2023-11-02T08:08:48.862Z,8.10
2023-11-02T08:11:17.442Z,8.13
2023-11-02T08:13:47.279Z,8.18
2023-11-02T08:16:22.142Z,8.26
2023-11-02T08:18:51.007Z,8.32
2023-11-02T08:21:21.261Z,8.37
2023-11-02T08:23:49.771Z,8.43
2023-11-02T08:26:18.710Z,8.45
2023-11-02T08:28:47.071Z,8.47
2023-11-02T08:31:15.754Z,8.53
2023-11-02T08:33:44.320Z,8.58
2023-11-02T08:36:16.323Z,8.64
2023-11-02T08:38:47.040Z,8.75
2023-11-02T08:41:22.490Z,8.86
2023-11-02T08:43:51.782Z,8.90
2023-11-02T08:46:22.119Z,8.98
2023-11-02T08:48:51.617Z,9.09
2023-11-02T08:51:21.519Z,9.15
2023-11-02T08:53:51.966Z,9.27
2023-11-02T08:56:21.228Z,9.29
2023-11-02T08:58:52.034Z,9.35
2023-11-02T09:01:24.045Z,9.39
2023-11-02T09:03:53.031Z,9.45
2023-11-02T09:06:22.947Z,9.53
2023-11-02T09:08:54.842Z,9.56
2023-11-02T09:11:23.624Z,9.67
2023-11-02T09:13:52.122Z,9.73
2023-11-02T09:16:20.861Z,9.81
2023-11-02T09:18:53.127Z,9.91
2023-11-02T09:21:22.176Z,9.98
2023-11-02T09:23:52.246Z,10.03
2023-11-02T09:26:21.790Z,10.10
2023-11-02T09:28:51.024Z,10.11
2023-11-02T09:31:19.442Z,10.17
2023-11-02T09:33:48.457Z,10.16
2023-11-02T09:36:18.603Z,10.23
2023-11-02T09:38:47.018Z,10.29
2023-11-02T09:41:17.204Z,10.29
2023-11-02T09:43:45.657Z,10.22
2023-11-02T09:46:14.684Z,10.22
2023-11-02T09:48:43.595Z,10.29
2023-11-02T09:51:13.678Z,10.27
2023-11-02T09:53:42.101Z,10.31
2023-11-02T09:56:10.896Z,10.33
2023-11-02T09:58:41.978Z,10.37
2023-11-02T10:01:13.024Z,10.39
2023-11-02T10:03:43.562Z,10.39
2023-11-02T10:06:12.861Z,10.43
2023-11-02T10:08:41.921Z,10.51
2023-11-02T10:11:12.677Z,10.56
2023-11-02T10:13:42.964Z,10.63
2023-11-02T10:16:11.837Z,10.68
2023-11-02T10:18:40.901Z,10.74
2023-11-02T10:21:10.522Z,10.77
2023-11-02T10:23:51.782Z,10.82
2023-11-02T10:26:20.829Z,10.85
2023-11-02T10:28:51.864Z,10.90
2023-11-02T10:31:21.197Z,10.92
2023-11-02T10:33:52.779Z,10.97
2023-11-02T10:36:22.596Z,10.96
2023-11-02T10:38:51.928Z,11.00
2023-11-02T10:41:21.118Z,11.03
2023-11-02T10:43:51.307Z,11.10
2023-11-02T10:46:21.869Z,11.15
2023-11-02T10:48:55.153Z,11.19
2023-11-02T10:51:26.516Z,11.20
2023-11-02T10:54:08.705Z,11.25
2023-11-02T10:56:44.728Z,11.22
2023-11-02T10:59:15.731Z,11.30
2023-11-02T11:01:44.308Z,11.27
2023-11-02T11:04:13.190Z,11.25
2023-11-02T11:06:44.826Z,11.24
2023-11-02T11:09:14.250Z,11.16
2023-11-02T11:11:43.144Z,11.19
2023-11-02T11:14:11.603Z,11.05
2023-11-02T11:16:42.963Z,11.05
2023-11-02T11:19:12.568Z,11.10
2023-11-02T11:21:42.633Z,11.16
2023-11-02T11:24:18.052Z,11.10
2023-11-02T11:26:48.928Z,11.11
2023-11-02T11:29:39.511Z,11.14
2023-11-02T11:32:10.454Z,11.23
2023-11-02T11:35:07.170Z,11.25
2023-11-02T11:37:38.616Z,11.27
2023-11-02T11:40:11.481Z,11.33
2023-11-02T11:43:02.127Z,11.38
2023-11-02T11:45:32.962Z,11.39
2023-11-02T11:48:04.005Z,11.37
2023-11-02T11:50:37.188Z,11.35
2023-11-02T11:53:16.417Z,11.34
2023-11-02T11:55:45.994Z,11.34
2023-11-02T11:58:15.353Z,11.37
2023-11-02T12:01:17.110Z,11.38
2023-11-02T12:03:50.304Z,11.33
2023-11-02T12:06:38.950Z,11.27
2023-11-02T12:09:11.284Z,11.26
2023-11-02T12:11:40.587Z,11.30
2023-11-02T12:14:14.582Z,11.29
2023-11-02T12:16:43.689Z,11.18
2023-11-02T12:19:13.804Z,11.17
2023-11-02T12:21:42.804Z,11.18
2023-11-02T12:24:13.434Z,11.00
2023-11-02T12:26:42.239Z,11.11
2023-11-02T12:29:12.305Z,11.25
2023-11-02T12:31:42.948Z,11.15
2023-11-02T12:34:14.048Z,11.20
2023-11-02T12:36:45.021Z,11.19
2023-11-02T12:39:16.333Z,11.29
2023-11-02T12:41:48.952Z,11.33
2023-11-02T12:44:21.434Z,11.14
2023-11-02T12:46:54.061Z,11.28
2023-11-02T12:49:26.610Z,11.26
2023-11-02T12:52:08.369Z,10.97
2023-11-02T12:54:38.234Z,10.97
2023-11-02T12:57:08.139Z,10.79
2023-11-02T12:59:41.596Z,10.76
2023-11-02T13:02:12.770Z,10.74
2023-11-02T13:04:54.223Z,10.71
2023-11-02T13:07:24.354Z,10.55
2023-11-02T13:10:03.848Z,10.40
2023-11-02T13:12:35.853Z,10.33
2023-11-02T13:15:09.513Z,10.31
2023-11-02T13:17:40.421Z,10.35
2023-11-02T13:20:11.954Z,10.28
2023-11-02T13:22:40.764Z,10.18
2023-11-02T13:25:09.546Z,10.26
2023-11-02T13:27:38.931Z,10.30
2023-11-02T13:30:10.919Z,10.41
2023-11-02T13:32:40.766Z,10.38
2023-11-02T13:35:11.277Z,10.46
2023-11-02T13:37:40.284Z,10.41
2023-11-02T13:40:11.703Z,10.39
2023-11-02T13:42:42.529Z,10.33
2023-11-02T13:45:12.508Z,10.31
2023-11-02T13:47:43.124Z,10.46
2023-11-02T13:50:15.310Z,10.53
2023-11-02T13:52:45.060Z,10.37
2023-11-02T13:55:15.012Z,10.26
2023-11-02T13:57:43.877Z,10.37
2023-11-02T14:00:16.760Z,10.37
2023-11-02T14:02:45.846Z,10.48
2023-11-02T14:05:16.516Z,10.59
2023-11-02T14:07:46.462Z,10.63
2023-11-02T14:10:16.647Z,10.53
2023-11-02T14:12:45.366Z,10.58
2023-11-02T14:15:14.019Z,10.72
2023-11-02T14:17:42.654Z,10.63
2023-11-02T14:20:12.227Z,10.74
2023-11-02T14:22:42.465Z,10.66
2023-11-02T14:25:11.435Z,10.71
2023-11-02T14:27:40.179Z,10.79
2023-11-02T14:30:10.033Z,10.86
2023-11-02T14:32:38.711Z,10.90
2023-11-02T14:35:07.671Z,10.93
2023-11-02T14:37:36.454Z,10.94
2023-11-02T14:40:10.466Z,10.88
2023-11-02T14:42:39.458Z,10.57
2023-11-02T14:45:10.219Z,10.47
2023-11-02T14:47:38.959Z,10.54
2023-11-02T14:50:08.273Z,10.48
2023-11-02T14:52:39.152Z,10.57
2023-11-02T14:55:11.840Z,10.49
2023-11-02T14:57:40.332Z,10.50
2023-11-02T15:00:13.674Z,10.34
2023-11-02T15:02:42.532Z,10.23
2023-11-02T15:05:12.297Z,10.20
2023-11-02T15:07:41.267Z,10.15
2023-11-02T15:10:12.519Z,10.23
2023-11-02T15:12:42.488Z,10.27
2023-11-02T15:15:13.653Z,10.12
2023-11-02T15:17:42.414Z,10.15
2023-11-02T15:20:13.988Z,10.14
2023-11-02T15:22:43.672Z,10.17
2023-11-02T15:25:13.535Z,10.27
2023-11-02T15:27:43.598Z,10.30
2023-11-02T15:30:14.044Z,10.38
2023-11-02T15:32:43.074Z,10.31
2023-11-02T15:35:11.401Z,10.13
2023-11-02T15:37:40.329Z,10.19
2023-11-02T15:40:09.685Z,10.29
2023-11-02T15:42:40.087Z,10.38
2023-11-02T15:45:11.149Z,10.26
2023-11-02T15:47:40.236Z,10.36
2023-11-02T15:50:09.977Z,10.38
2023-11-02T15:52:44.866Z,10.39
2023-11-02T15:55:15.738Z,10.41
2023-11-02T15:57:47.642Z,10.43
2023-11-02T16:00:18.382Z,10.44
2023-11-02T16:02:48.398Z,10.39
2023-11-02T16:05:18.915Z,10.36
2023-11-02T16:07:48.769Z,10.34
2023-11-02T16:10:17.628Z,10.34
2023-11-02T16:12:48.613Z,10.35
2023-11-02T16:15:18.720Z,10.34
2023-11-02T16:17:48.478Z,10.30
2023-11-02T16:20:19.659Z,10.27
2023-11-02T16:22:49.192Z,10.26
2023-11-02T16:25:19.640Z,10.26
2023-11-02T16:27:50.351Z,10.25
2023-11-02T16:30:19.017Z,10.19
2023-11-02T16:32:47.457Z,10.18
2023-11-02T16:35:28.787Z,10.19
2023-11-02T16:38:02.458Z,10.22
2023-11-02T16:40:30.968Z,10.18
2023-11-02T16:43:02.887Z,10.19
2023-11-02T16:45:31.552Z,10.16
2023-11-02T16:48:00.496Z,10.15
2023-11-02T16:50:29.254Z,10.02
2023-11-02T16:52:57.896Z,10.06
2023-11-02T16:55:26.909Z,10.10
2023-11-02T16:57:55.390Z,10.14
2023-11-02T17:00:26.341Z,10.12
2023-11-02T17:02:54.965Z,10.12
2023-11-02T17:05:23.630Z,10.11
2023-11-02T17:07:52.081Z,10.08
2023-11-02T17:10:20.870Z,10.06
2023-11-02T17:12:53.729Z,10.06
2023-11-02T17:15:22.110Z,10.03
2023-11-02T17:17:52.690Z,9.99
2023-11-02T17:20:22.109Z,10.01
2023-11-02T17:22:51.477Z,10.01
2023-11-02T17:25:20.005Z,9.99
2023-11-02T17:27:48.562Z,9.97
2023-11-02T17:30:17.245Z,9.91
2023-11-02T17:32:45.981Z,9.91
2023-11-02T17:35:16.395Z,9.96
2023-11-02T17:37:44.963Z,9.93
2023-11-02T17:40:14.979Z,9.94
2023-11-02T17:42:43.526Z,9.89
2023-11-02T17:45:12.804Z,9.85
2023-11-02T17:47:41.322Z,9.90
2023-11-02T17:50:10.558Z,9.88
2023-11-02T17:52:40.634Z,9.83
2023-11-02T17:55:09.985Z,9.78
2023-11-02T17:57:38.759Z,9.71
2023-11-02T18:00:09.289Z,9.70
2023-11-02T18:02:40.803Z,9.70
2023-11-02T18:05:09.894Z,9.68
2023-11-02T18:07:38.711Z,9.65
2023-11-02T18:10:11.214Z,9.64
2023-11-02T18:12:40.525Z,9.61
2023-11-02T18:15:10.720Z,9.55
2023-11-02T18:17:39.220Z,9.57
2023-11-02T18:20:10.333Z,9.59
2023-11-02T18:22:38.876Z,9.62
2023-11-02T18:25:10.072Z,9.58
2023-11-02T18:27:40.582Z,9.55
2023-11-02T18:30:10.920Z,9.48
2023-11-02T18:32:39.993Z,9.47
2023-11-02T18:35:10.275Z,9.41
2023-11-02T18:37:39.445Z,9.45
2023-11-02T18:40:11.147Z,9.46
2023-11-02T18:42:39.570Z,9.50
2023-11-02T18:45:11.784Z,9.47
2023-11-02T18:47:40.945Z,9.43
2023-11-02T18:50:10.996Z,9.46
2023-11-02T18:52:42.268Z,9.50
2023-11-02T18:55:12.933Z,9.45
2023-11-02T18:57:41.379Z,9.35
2023-11-02T19:00:10.966Z,9.29
2023-11-02T19:02:40.472Z,9.27
2023-11-02T19:05:11.657Z,9.25
2023-11-02T19:07:43.442Z,9.20
2023-11-02T19:10:17.055Z,9.21
2023-11-02T19:12:45.696Z,9.17
2023-11-02T19:15:15.254Z,9.11
2023-11-02T19:17:44.308Z,9.09
2023-11-02T19:20:13.175Z,9.06
2023-11-02T19:22:41.519Z,9.07
2023-11-02T19:25:10.271Z,9.13
2023-11-02T19:27:40.679Z,9.09
2023-11-02T19:30:11.162Z,9.15
2023-11-02T19:32:39.910Z,9.15
2023-11-02T19:35:09.626Z,9.14
2023-11-02T19:37:40.252Z,9.04
2023-11-02T19:40:12.348Z,9.08
2023-11-02T19:42:42.486Z,9.07
2023-11-02T19:45:12.187Z,9.02
2023-11-02T19:47:41.157Z,9.10
2023-11-02T19:50:13.796Z,9.02
2023-11-02T19:52:43.712Z,9.00
2023-11-02T19:55:12.307Z,8.98
2023-11-02T19:57:44.039Z,8.97
2023-11-02T20:00:13.739Z,8.99
2023-11-02T20:02:43.810Z,8.92
2023-11-02T20:05:12.764Z,8.81
2023-11-02T20:07:41.675Z,8.84
2023-11-02T20:10:11.712Z,8.86
2023-11-02T20:12:40.487Z,8.83
2023-11-02T20:15:12.707Z,8.78
2023-11-02T20:17:41.764Z,8.87
2023-11-02T20:20:11.785Z,8.80
2023-11-02T20:22:40.406Z,8.84
2023-11-02T20:25:09.544Z,8.71
2023-11-02T20:27:37.909Z,8.71
2023-11-02T20:30:07.257Z,8.75
2023-11-02T20:32:36.913Z,8.76
2023-11-02T20:35:05.771Z,8.78
2023-11-02T20:37:34.142Z,8.76
2023-11-02T20:40:07.340Z,8.76
2023-11-02T20:42:36.359Z,8.82
2023-11-02T20:45:07.667Z,8.84
2023-11-02T20:47:38.176Z,8.84
2023-11-02T20:50:07.313Z,8.75
2023-11-02T20:52:35.955Z,8.76
2023-11-02T20:55:04.527Z,8.76
2023-11-02T20:57:33.121Z,8.76
2023-11-02T21:00:02.239Z,8.66
2023-11-02T21:02:30.865Z,8.70
2023-11-02T21:05:00.749Z,8.64
2023-11-02T21:07:29.579Z,8.61
2023-11-02T21:09:57.985Z,8.56
2023-11-02T21:12:26.494Z,8.57
2023-11-02T21:14:55.144Z,8.65
2023-11-02T21:17:23.694Z,8.66
2023-11-02T21:19:52.694Z,8.67
2023-11-02T21:22:23.052Z,8.70
2023-11-02T21:24:55.121Z,8.70
2023-11-02T21:27:24.480Z,8.77
2023-11-02T21:29:52.982Z,8.72
2023-11-02T21:32:21.355Z,8.66
2023-11-02T21:34:49.885Z,8.68
2023-11-02T21:37:19.092Z,8.77
2023-11-02T21:39:49.124Z,8.76
2023-11-02T21:42:17.614Z,8.84
2023-11-02T21:44:47.957Z,8.83
2023-11-02T21:47:16.395Z,8.66
2023-11-02T21:49:45.423Z,8.79
2023-11-02T21:52:14.254Z,8.85
2023-11-02T21:54:42.789Z,8.81
2023-11-02T21:57:12.582Z,8.84
2023-11-02T21:59:41.764Z,8.81
2023-11-02T22:02:10.144Z,8.87
2023-11-02T22:04:39.152Z,8.87
2023-11-02T22:07:08.253Z,8.79
2023-11-02T22:09:36.825Z,8.85
2023-11-02T22:12:05.920Z,8.86
2023-11-02T22:14:39.709Z,8.67
2023-11-02T22:17:08.203Z,8.72
2023-11-02T22:19:36.565Z,8.73
2023-11-02T22:22:05.359Z,8.77
2023-11-02T22:24:34.085Z,8.84
2023-11-02T22:27:03.935Z,8.83
2023-11-02T22:29:32.776Z,8.85
2023-11-02T22:32:02.988Z,8.89
2023-11-02T22:34:32.447Z,8.82
2023-11-02T22:37:02.412Z,8.82
2023-11-02T22:39:31.065Z,8.78
2023-11-02T22:41:59.747Z,8.63
2023-11-02T22:44:28.365Z,8.64
2023-11-02T22:46:56.873Z,8.60
2023-11-02T22:49:26.891Z,8.69
2023-11-02T22:51:56.511Z,8.72
2023-11-02T22:54:25.175Z,8.66
2023-11-02T22:56:54.697Z,8.66
2023-11-02T22:59:23.509Z,8.62
2023-11-02T23:01:55.659Z,8.68
2023-11-02T23:04:24.858Z,8.59
2023-11-02T23:06:55.246Z,8.57
2023-11-02T23:09:24.201Z,8.63
2023-11-02T23:11:55.576Z,8.67
2023-11-02T23:14:24.116Z,8.66
2023-11-02T23:16:52.799Z,8.63
2023-11-02T23:19:21.335Z,8.63
2023-11-02T23:21:49.711Z,8.66
2023-11-02T23:24:20.153Z,8.64
2023-11-02T23:26:48.564Z,8.64
2023-11-02T23:29:17.137Z,8.55
2023-11-02T23:31:45.763Z,8.58
2023-11-02T23:34:14.253Z,8.62
2023-11-02T23:36:42.877Z,8.65
2023-11-02T23:39:11.723Z,8.49
2023-11-02T23:41:43.180Z,8.33
2023-11-02T23:44:12.652Z,8.37
2023-11-02T23:46:42.137Z,8.42
2023-11-02T23:49:11.722Z,8.40
2023-11-02T23:51:40.322Z,8.36
2023-11-02T23:54:09.210Z,8.31
2023-11-02T23:56:37.696Z,8.30
2023-11-02T23:59:07.928Z,8.30
